createdAt,value
2022-12-06T00:01:47.448Z,16.58
2022-12-06T00:04:17.549Z,18.85
2022-12-06T00:06:49.168Z,16.83
2022-12-06T00:09:25.303Z,17.83
2022-12-06T00:11:55.709Z,16.27
2022-12-06T00:14:26.130Z,17.60
2022-12-06T00:16:55.920Z,17.70
2022-12-06T00:19:25.685Z,16.02
2022-12-06T00:21:55.546Z,17.48
2022-12-06T00:24:25.868Z,16.25
2022-12-06T00:26:55.685Z,18.98
2022-12-06T00:29:25.599Z,15.95
2022-12-06T00:31:55.945Z,15.45
2022-12-06T00:34:30.019Z,15.38
2022-12-06T00:37:02.991Z,16.92
2022-12-06T00:39:33.184Z,17.58
2022-12-06T00:42:03.434Z,18.42
2022-12-06T00:44:33.065Z,16.92
2022-12-06T00:47:02.781Z,19.90
2022-12-06T00:49:32.927Z,15.18
2022-12-06T00:52:08.096Z,17.15
2022-12-06T00:54:37.745Z,18.98
2022-12-06T00:57:07.864Z,20.27
2022-12-06T00:59:37.597Z,18.38
2022-12-06T01:02:08.247Z,16.27
2022-12-06T01:04:38.649Z,18.75
2022-12-06T01:07:08.451Z,18.00
2022-12-06T01:09:38.650Z,20.45
2022-12-06T01:12:08.365Z,16.27
2022-12-06T01:14:38.365Z,18.42
2022-12-06T01:17:08.523Z,18.77
2022-12-06T01:19:38.146Z,19.45
2022-12-06T01:22:08.113Z,17.63
2022-12-06T01:24:38.206Z,19.50
2022-12-06T01:27:08.717Z,19.13
2022-12-06T01:29:38.843Z,19.70
2022-12-06T01:32:09.011Z,21.85
2022-12-06T01:34:39.998Z,20.05
2022-12-06T01:37:10.153Z,20.65
2022-12-06T01:39:40.218Z,22.52
2022-12-06T01:42:14.641Z,20.02
2022-12-06T01:44:55.801Z,19.98
2022-12-06T01:47:27.147Z,22.65
2022-12-06T01:50:20.359Z,20.80
2022-12-06T01:53:09.659Z,19.58
2022-12-06T01:55:40.337Z,19.27
2022-12-06T01:58:24.724Z,21.67
2022-12-06T02:00:54.719Z,22.55
2022-12-06T02:03:27.433Z,21.95
2022-12-06T02:05:57.565Z,25.00
2022-12-06T02:08:27.391Z,22.70
2022-12-06T02:10:57.566Z,21.13
2022-12-06T02:13:27.161Z,21.98
2022-12-06T02:16:15.265Z,21.98
2022-12-06T02:19:07.003Z,22.98
2022-12-06T02:22:05.964Z,21.33
2022-12-06T02:24:57.254Z,20.75
2022-12-06T02:28:04.187Z,22.83
2022-12-06T02:30:49.185Z,21.77
2022-12-06T02:33:21.702Z,25.45
2022-12-06T02:36:16.905Z,25.58
2022-12-06T02:38:53.500Z,23.42
2022-12-06T02:41:28.990Z,25.40
2022-12-06T02:44:01.609Z,22.90
2022-12-06T02:46:33.682Z,21.67
2022-12-06T02:49:04.637Z,23.13
2022-12-06T02:51:34.494Z,25.65
2022-12-06T02:54:06.777Z,21.25
2022-12-06T02:56:36.644Z,19.40
2022-12-06T02:59:06.441Z,22.05
2022-12-06T03:01:38.489Z,19.17
2022-12-06T03:04:17.189Z,20.63
2022-12-06T03:07:06.758Z,21.98
2022-12-06T03:09:48.403Z,21.63
2022-12-06T03:12:21.152Z,24.42
2022-12-06T03:15:12.298Z,22.80
2022-12-06T03:17:53.690Z,22.60
2022-12-06T03:20:33.432Z,22.08
2022-12-06T03:23:07.494Z,22.10
2022-12-06T03:25:37.694Z,21.98
2022-12-06T03:28:08.166Z,24.45
2022-12-06T03:30:38.323Z,23.77
2022-12-06T03:33:08.450Z,23.23
2022-12-06T03:35:38.476Z,23.65
2022-12-06T03:38:13.159Z,20.13
2022-12-06T03:40:47.575Z,21.83
2022-12-06T03:43:19.439Z,21.35
2022-12-06T03:46:30.369Z,23.30
2022-12-06T03:49:22.164Z,22.58
2022-12-06T03:51:51.876Z,20.35
2022-12-06T03:54:21.330Z,21.52
2022-12-06T03:56:50.815Z,21.67
2022-12-06T03:59:20.955Z,22.63
2022-12-06T04:01:51.175Z,22.48
2022-12-06T04:04:21.228Z,22.55
2022-12-06T04:06:51.801Z,21.15
2022-12-06T04:09:40.425Z,19.85
2022-12-06T04:12:31.700Z,22.35
2022-12-06T04:15:13.908Z,20.05
2022-12-06T04:18:03.491Z,24.00
2022-12-06T04:20:54.816Z,20.63
2022-12-06T04:23:24.990Z,21.98
2022-12-06T04:25:54.576Z,20.83
2022-12-06T04:28:42.601Z,19.80
2022-12-06T04:31:32.079Z,18.60
2022-12-06T04:34:20.661Z,20.80
2022-12-06T04:37:09.082Z,19.88
2022-12-06T04:39:39.005Z,19.42
2022-12-06T04:42:28.544Z,22.02
2022-12-06T04:44:58.731Z,17.10
2022-12-06T04:47:28.458Z,16.77
2022-12-06T04:49:58.352Z,14.60
2022-12-06T04:52:35.741Z,16.45
2022-12-06T04:55:07.215Z,15.95
2022-12-06T04:57:36.869Z,14.65
2022-12-06T05:00:08.845Z,11.68
2022-12-06T05:02:39.301Z,13.68
2022-12-06T05:05:09.713Z,17.60
2022-12-06T05:07:39.305Z,16.60
2022-12-06T05:10:09.475Z,23.77
2022-12-06T05:12:38.972Z,24.80
2022-12-06T05:15:09.282Z,27.35
2022-12-06T05:17:39.244Z,18.30
2022-12-06T05:20:09.705Z,22.20
2022-12-06T05:22:39.721Z,20.25
2022-12-06T05:25:09.636Z,24.15
2022-12-06T05:27:39.118Z,19.80
2022-12-06T05:30:10.359Z,17.92
2022-12-06T05:32:40.764Z,13.13
2022-12-06T05:35:10.863Z,15.40
2022-12-06T05:37:40.793Z,17.83
2022-12-06T05:40:10.956Z,14.50
2022-12-06T05:42:46.701Z,17.63
2022-12-06T05:45:16.635Z,15.48
2022-12-06T05:47:49.700Z,12.80
2022-12-06T05:50:21.308Z,15.43
2022-12-06T05:52:58.102Z,11.75
2022-12-06T05:55:27.730Z,13.23
2022-12-06T05:57:57.335Z,14.50
2022-12-06T06:00:27.191Z,14.10
2022-12-06T06:02:57.263Z,13.70
2022-12-06T06:05:26.987Z,12.40
2022-12-06T06:07:56.540Z,12.20
2022-12-06T06:10:26.571Z,14.77
2022-12-06T06:12:56.641Z,10.27
2022-12-06T06:15:26.139Z,11.05
2022-12-06T06:17:55.674Z,10.80
2022-12-06T06:20:25.566Z,10.38
2022-12-06T06:22:55.090Z,10.30
2022-12-06T06:25:25.015Z,10.52
2022-12-06T06:27:56.087Z,10.48
2022-12-06T06:30:26.204Z,12.02
2022-12-06T06:32:56.908Z,13.52
2022-12-06T06:35:27.027Z,16.23
2022-12-06T06:37:57.047Z,9.15
2022-12-06T06:40:28.078Z,15.55
2022-12-06T06:42:57.871Z,10.13
2022-12-06T06:45:29.086Z,10.43
2022-12-06T06:47:59.224Z,9.43
2022-12-06T06:50:29.256Z,9.95
2022-12-06T06:52:58.970Z,10.77
2022-12-06T06:55:28.370Z,8.45
2022-12-06T06:57:57.944Z,8.80
2022-12-06T07:00:27.778Z,7.22
2022-12-06T07:02:57.400Z,9.85
2022-12-06T07:05:29.626Z,7.70
2022-12-06T07:07:59.805Z,7.57
2022-12-06T07:10:30.289Z,7.93
2022-12-06T07:13:00.304Z,6.13
2022-12-06T07:15:30.332Z,7.50
2022-12-06T07:18:00.393Z,7.40
2022-12-06T07:20:30.519Z,6.93
2022-12-06T07:23:00.309Z,6.15
2022-12-06T07:25:30.440Z,9.07
2022-12-06T07:28:00.713Z,6.28
2022-12-06T07:30:30.297Z,7.28
2022-12-06T07:33:00.356Z,6.55
2022-12-06T07:35:55.650Z,7.13
2022-12-06T07:38:19.952Z,6.47
2022-12-06T07:41:04.561Z,8.00
2022-12-06T07:43:56.702Z,7.45
2022-12-06T07:46:27.279Z,7.07
2022-12-06T07:48:57.233Z,6.78
2022-12-06T07:51:27.202Z,6.30
2022-12-06T07:53:57.367Z,5.88
2022-12-06T07:56:27.071Z,5.97
2022-12-06T07:58:57.002Z,4.63
2022-12-06T08:01:27.187Z,5.90
2022-12-06T08:03:57.155Z,5.53
2022-12-06T08:06:27.283Z,6.45
2022-12-06T08:08:57.379Z,4.15
2022-12-06T08:11:27.124Z,5.28
2022-12-06T08:13:56.763Z,3.35
2022-12-06T08:16:26.497Z,7.38
2022-12-06T08:18:57.253Z,4.07
2022-12-06T08:21:32.035Z,4.53
2022-12-06T08:24:05.173Z,4.68
2022-12-06T08:26:35.286Z,4.15
2022-12-06T08:29:05.742Z,4.70
2022-12-06T08:31:35.452Z,3.28
2022-12-06T08:34:06.185Z,3.97
2022-12-06T08:36:35.917Z,3.15
2022-12-06T08:39:05.503Z,3.95
2022-12-06T08:41:54.081Z,3.85
2022-12-06T08:44:25.529Z,5.00
2022-12-06T08:46:55.880Z,2.65
2022-12-06T08:49:26.103Z,3.65
2022-12-06T08:51:55.966Z,3.55
2022-12-06T08:54:26.595Z,3.17
2022-12-06T08:56:56.739Z,3.55
2022-12-06T08:59:26.793Z,3.72
2022-12-06T09:01:56.845Z,4.03
2022-12-06T09:04:28.678Z,3.50
2022-12-06T09:06:58.338Z,3.55
2022-12-06T09:09:28.107Z,3.03
2022-12-06T09:11:57.716Z,3.65
2022-12-06T09:14:27.776Z,4.45
2022-12-06T09:16:57.408Z,3.55
2022-12-06T09:19:27.453Z,3.42
2022-12-06T09:21:56.916Z,4.38
2022-12-06T09:24:26.927Z,3.30
2022-12-06T09:26:56.486Z,5.05
2022-12-06T09:29:26.671Z,3.92
2022-12-06T09:31:56.170Z,3.83
2022-12-06T09:34:25.775Z,3.15
2022-12-06T09:37:00.957Z,4.40
2022-12-06T09:39:41.475Z,3.80
2022-12-06T09:42:26.703Z,3.40
2022-12-06T09:45:14.802Z,3.30
2022-12-06T09:47:50.009Z,2.75
2022-12-06T09:50:56.795Z,3.55
2022-12-06T09:53:44.601Z,3.85
2022-12-06T09:56:25.868Z,4.43
2022-12-06T09:59:03.967Z,4.30
2022-12-06T10:01:56.311Z,6.13
2022-12-06T10:04:30.831Z,5.10
2022-12-06T10:07:24.532Z,3.65
2022-12-06T10:10:17.363Z,4.78
2022-12-06T10:12:50.596Z,4.07
2022-12-06T10:15:33.883Z,4.53
2022-12-06T10:18:21.011Z,4.78
2022-12-06T10:20:55.004Z,4.70
2022-12-06T10:23:30.391Z,4.53
2022-12-06T10:26:18.076Z,4.68
2022-12-06T10:29:29.092Z,8.30
2022-12-06T10:32:05.924Z,6.82
2022-12-06T10:34:53.449Z,8.50
2022-12-06T10:37:55.322Z,15.75
2022-12-06T10:41:12.383Z,5.35
2022-12-06T10:44:18.534Z,6.57
2022-12-06T10:47:05.821Z,6.70
2022-12-06T10:50:09.782Z,8.23
2022-12-06T10:53:20.337Z,8.82
2022-12-06T10:56:08.685Z,9.00
2022-12-06T10:58:47.869Z,11.73
2022-12-06T11:01:29.200Z,11.57
2022-12-06T11:04:09.104Z,10.98
2022-12-06T11:06:42.259Z,10.32
2022-12-06T11:09:44.854Z,10.55
2022-12-06T11:12:39.326Z,11.40
2022-12-06T11:17:48.924Z,18.98
2022-12-06T11:20:28.509Z,19.02
2022-12-06T11:23:12.467Z,19.65
2022-12-06T11:25:56.258Z,14.88
2022-12-06T11:28:33.156Z,17.80
2022-12-06T11:31:02.892Z,18.13
2022-12-06T11:33:35.048Z,18.05
2022-12-06T11:36:06.089Z,15.98
2022-12-06T11:38:35.507Z,17.00
2022-12-06T11:41:05.157Z,15.82
2022-12-06T11:43:36.563Z,19.23
2022-12-06T11:46:06.177Z,22.50
2022-12-06T11:48:36.296Z,20.63
2022-12-06T11:51:05.661Z,17.95
2022-12-06T11:53:48.938Z,20.88
2022-12-06T11:56:29.363Z,19.20
2022-12-06T11:59:25.859Z,18.08
2022-12-06T12:01:58.077Z,24.65
2022-12-06T12:04:43.484Z,20.17
2022-12-06T12:07:19.566Z,21.95
2022-12-06T12:09:55.706Z,24.40
2022-12-06T12:13:06.402Z,20.45
2022-12-06T12:15:35.295Z,22.80
2022-12-06T12:18:04.749Z,21.75
2022-12-06T12:20:40.233Z,21.40
2022-12-06T12:23:34.513Z,21.90
2022-12-06T12:26:04.527Z,21.85
2022-12-06T12:28:34.173Z,22.35
2022-12-06T12:31:28.996Z,22.98
2022-12-06T12:34:27.465Z,20.60
2022-12-06T12:37:03.763Z,21.92
2022-12-06T12:39:46.832Z,22.05
2022-12-06T12:42:33.985Z,22.90
2022-12-06T12:45:05.347Z,24.77
2022-12-06T12:47:34.518Z,23.70
2022-12-06T12:50:06.545Z,24.67
2022-12-06T12:52:40.386Z,22.42
2022-12-06T12:55:20.068Z,23.45
2022-12-06T12:57:51.162Z,24.45
2022-12-06T13:00:36.639Z,22.33
2022-12-06T13:03:34.857Z,20.80
2022-12-06T13:06:00.918Z,22.60
2022-12-06T13:08:37.100Z,22.75
2022-12-06T13:11:07.241Z,23.73
2022-12-06T13:13:46.129Z,21.42
2022-12-06T13:16:17.154Z,21.08
2022-12-06T13:18:48.328Z,20.77
2022-12-06T13:21:26.284Z,23.55
2022-12-06T13:23:58.977Z,25.30
2022-12-06T13:26:40.133Z,23.15
2022-12-06T13:29:40.488Z,21.90
2022-12-06T13:32:17.151Z,21.42
2022-12-06T13:34:53.336Z,19.50
2022-12-06T13:37:30.207Z,25.30
2022-12-06T13:40:01.196Z,26.75
2022-12-06T13:42:40.065Z,25.73
2022-12-06T13:45:44.633Z,23.90
2022-12-06T13:48:26.302Z,22.60
2022-12-06T13:51:06.506Z,22.05
2022-12-06T13:53:36.956Z,24.77
2022-12-06T13:56:28.889Z,23.77
2022-12-06T13:58:59.197Z,25.55
2022-12-06T14:01:44.393Z,24.70
2022-12-06T14:09:42.433Z,22.02
2022-12-06T14:12:22.452Z,27.05
2022-12-06T14:15:05.775Z,23.45
2022-12-06T14:20:32.475Z,25.38
2022-12-06T14:23:01.251Z,22.52
2022-12-06T14:25:31.596Z,24.25
2022-12-06T14:28:05.676Z,24.92
2022-12-06T14:30:35.383Z,22.83
2022-12-06T14:33:16.680Z,24.92
2022-12-06T14:35:52.306Z,24.85
2022-12-06T14:38:29.742Z,23.42
2022-12-06T14:41:17.162Z,26.83
2022-12-06T14:43:48.078Z,23.88
2022-12-06T14:46:17.326Z,25.45
2022-12-06T14:49:04.646Z,23.65
2022-12-06T14:51:38.685Z,24.50
2022-12-06T14:54:32.962Z,24.83
2022-12-06T14:57:03.005Z,23.30
2022-12-06T15:00:13.566Z,23.33
2022-12-06T15:02:38.863Z,26.50
2022-12-06T15:05:34.725Z,30.80
2022-12-06T15:08:20.176Z,25.70
2022-12-06T15:10:59.387Z,27.45
2022-12-06T15:13:29.151Z,28.45
2022-12-06T15:16:03.368Z,30.40
2022-12-06T15:18:47.094Z,25.30
2022-12-06T15:23:51.060Z,26.30
2022-12-06T15:26:21.435Z,29.95
2022-12-06T15:28:54.217Z,25.80
2022-12-06T15:31:31.131Z,28.33
2022-12-06T15:34:00.015Z,27.15
2022-12-06T15:36:31.815Z,28.05
2022-12-06T15:39:02.021Z,26.40
2022-12-06T15:41:31.386Z,30.58
2022-12-06T15:44:00.346Z,24.98
2022-12-06T15:46:33.956Z,28.33
2022-12-06T15:49:03.750Z,28.38
2022-12-06T15:51:32.480Z,29.63
2022-12-06T15:54:03.513Z,26.05
2022-12-06T15:56:32.917Z,26.50
2022-12-06T15:59:04.854Z,28.27
2022-12-06T16:01:41.994Z,25.77
2022-12-06T16:04:18.311Z,23.83
2022-12-06T16:06:47.597Z,30.33
2022-12-06T16:09:17.750Z,27.63
2022-12-06T16:11:47.299Z,25.27
2022-12-06T16:14:16.273Z,27.85
2022-12-06T16:16:45.728Z,26.77
2022-12-06T16:19:17.542Z,25.20
2022-12-06T16:21:54.706Z,24.45
2022-12-06T16:24:26.292Z,29.85
2022-12-06T16:26:55.525Z,26.98
2022-12-06T16:29:26.023Z,26.27
2022-12-06T16:31:55.570Z,25.42
2022-12-06T16:34:25.662Z,30.50
2022-12-06T16:37:05.625Z,27.08
2022-12-06T16:39:35.547Z,26.73
2022-12-06T16:42:10.359Z,26.95
2022-12-06T16:44:51.883Z,27.05
2022-12-06T16:49:49.450Z,26.23
2022-12-06T16:52:18.353Z,26.42
2022-12-06T16:54:47.179Z,31.30
2022-12-06T16:57:15.904Z,27.48
2022-12-06T16:59:45.479Z,26.60
2022-12-06T17:02:30.602Z,27.17
2022-12-06T17:05:01.900Z,26.65
2022-12-06T17:07:31.961Z,25.98
2022-12-06T17:10:01.713Z,25.38
2022-12-06T17:12:30.622Z,28.77
2022-12-06T17:15:01.084Z,28.23
2022-12-06T17:17:30.301Z,25.35
2022-12-06T17:19:59.471Z,28.50
2022-12-06T17:22:28.345Z,26.83
2022-12-06T17:24:57.308Z,27.98
2022-12-06T17:27:26.584Z,25.85
2022-12-06T17:29:55.339Z,26.60
2022-12-06T17:32:24.743Z,27.80
2022-12-06T17:34:56.734Z,27.38
2022-12-06T17:37:25.985Z,25.60
2022-12-06T17:39:57.779Z,24.65
2022-12-06T17:42:45.339Z,27.95
2022-12-06T17:45:14.567Z,26.83
2022-12-06T17:47:43.819Z,25.13
2022-12-06T17:50:13.477Z,26.10
2022-12-06T17:52:42.550Z,26.27
2022-12-06T17:55:16.015Z,26.25
2022-12-06T18:00:13.746Z,25.77
2022-12-06T18:02:42.606Z,29.95
2022-12-06T18:05:14.772Z,26.60
2022-12-06T18:07:43.845Z,26.25
2022-12-06T18:10:16.591Z,27.50
2022-12-06T18:12:45.463Z,29.73
2022-12-06T18:15:34.451Z,29.30
2022-12-06T18:18:03.305Z,27.10
2022-12-06T18:20:32.250Z,30.52
2022-12-06T18:23:00.943Z,29.42
2022-12-06T18:25:29.593Z,29.05
2022-12-06T18:27:58.744Z,30.02
2022-12-06T18:30:27.938Z,27.30
2022-12-06T18:32:57.194Z,31.23
2022-12-06T18:35:26.083Z,28.30
2022-12-06T18:37:55.225Z,30.73
2022-12-06T18:40:24.243Z,31.35
2022-12-06T18:42:53.472Z,28.85
2022-12-06T18:45:22.751Z,26.67
2022-12-06T18:47:51.629Z,27.88
2022-12-06T18:50:20.851Z,30.67
2022-12-06T18:52:50.204Z,30.95
2022-12-06T18:55:19.466Z,33.63
2022-12-06T18:57:48.708Z,29.30
2022-12-06T19:00:17.951Z,30.92
2022-12-06T19:02:47.194Z,27.98
2022-12-06T19:05:27.728Z,32.80
2022-12-06T19:08:05.767Z,33.35
2022-12-06T19:10:35.568Z,31.15
2022-12-06T19:13:06.069Z,28.73
2022-12-06T19:15:34.897Z,30.52
2022-12-06T19:18:03.768Z,31.98
2022-12-06T19:20:33.512Z,31.98
2022-12-06T19:23:13.386Z,31.17
2022-12-06T19:25:42.107Z,28.42
2022-12-06T19:28:11.553Z,31.30
2022-12-06T19:30:41.986Z,30.02
2022-12-06T19:33:10.797Z,29.52
2022-12-06T19:35:39.601Z,29.85
2022-12-06T19:38:08.294Z,32.90
2022-12-06T19:40:42.072Z,30.38
2022-12-06T19:43:29.670Z,30.05
2022-12-06T19:46:07.983Z,34.08
2022-12-06T19:48:36.778Z,29.88
2022-12-06T19:51:08.868Z,27.40
2022-12-06T19:53:42.975Z,30.08
2022-12-06T19:56:14.315Z,27.80
2022-12-06T19:58:44.362Z,31.25
2022-12-06T20:01:16.777Z,31.73
2022-12-06T20:03:47.860Z,31.20
2022-12-06T20:06:18.509Z,31.75
2022-12-06T20:08:48.029Z,31.00
2022-12-06T20:11:37.283Z,30.70
2022-12-06T20:14:11.004Z,29.80
2022-12-06T20:16:40.506Z,29.08
2022-12-06T20:19:10.875Z,28.60
2022-12-06T20:21:39.770Z,30.42
2022-12-06T20:24:09.636Z,27.63
2022-12-06T20:26:39.312Z,29.65
2022-12-06T20:29:08.517Z,32.17
2022-12-06T20:31:37.592Z,30.33
2022-12-06T20:34:13.062Z,27.60
2022-12-06T20:36:44.244Z,27.40
2022-12-06T20:39:22.595Z,27.73
2022-12-06T20:41:51.457Z,32.00
2022-12-06T20:44:20.708Z,28.88
2022-12-06T20:46:50.533Z,26.98
2022-12-06T20:49:21.048Z,24.80
2022-12-06T20:51:53.223Z,26.52
2022-12-06T20:54:22.774Z,25.92
2022-12-06T20:56:53.712Z,25.33
2022-12-06T20:59:23.295Z,27.77
2022-12-06T21:01:53.305Z,26.77
2022-12-06T21:04:22.137Z,29.35
2022-12-06T21:06:51.371Z,26.58
2022-12-06T21:09:20.753Z,27.02
2022-12-06T21:11:49.768Z,25.00
2022-12-06T21:14:19.068Z,27.70
2022-12-06T21:16:48.381Z,24.58
2022-12-06T21:19:20.710Z,27.95
2022-12-06T21:21:54.728Z,22.85
2022-12-06T21:24:23.559Z,27.65
2022-12-06T21:26:54.959Z,25.27
2022-12-06T21:29:30.460Z,25.92
2022-12-06T21:32:02.725Z,24.98
2022-12-06T21:34:31.863Z,25.25
2022-12-06T21:37:00.719Z,28.50
2022-12-06T21:39:29.499Z,25.45
2022-12-06T21:41:58.733Z,26.38
2022-12-06T21:44:27.571Z,24.13
2022-12-06T21:46:56.876Z,23.75
2022-12-06T21:49:28.191Z,23.85
2022-12-06T21:52:03.219Z,26.52
2022-12-06T21:54:36.684Z,24.75
2022-12-06T21:57:05.458Z,23.33
2022-12-06T21:59:34.596Z,22.98
2022-12-06T22:02:04.000Z,22.70
2022-12-06T22:04:33.350Z,21.85
2022-12-06T22:07:06.123Z,22.55
2022-12-06T22:09:35.097Z,23.65
2022-12-06T22:12:04.463Z,24.15
2022-12-06T22:14:33.714Z,21.67
2022-12-06T22:17:03.072Z,24.77
2022-12-06T22:19:32.304Z,24.23
2022-12-06T22:22:01.121Z,22.42
2022-12-06T22:24:30.329Z,22.08
2022-12-06T22:26:59.129Z,22.58
2022-12-06T22:29:28.066Z,20.75
2022-12-06T22:31:57.832Z,21.52
2022-12-06T22:34:29.011Z,20.23
2022-12-06T22:36:58.425Z,20.92
2022-12-06T22:39:27.237Z,19.17
2022-12-06T22:41:56.533Z,23.17
2022-12-06T22:44:26.005Z,21.40
2022-12-06T22:46:54.929Z,24.65
2022-12-06T22:49:23.787Z,21.02
2022-12-06T22:51:53.113Z,19.17
2022-12-06T22:54:21.906Z,20.65
2022-12-06T22:56:50.684Z,20.30
2022-12-06T22:59:21.913Z,21.35
2022-12-06T23:01:51.095Z,21.77
2022-12-06T23:04:20.117Z,23.88
2022-12-06T23:06:49.470Z,19.90
2022-12-06T23:09:18.604Z,18.70
2022-12-06T23:11:47.780Z,20.77
2022-12-06T23:14:17.454Z,19.60
2022-12-06T23:16:46.654Z,20.45
2022-12-06T23:19:15.871Z,22.85
2022-12-06T23:21:45.296Z,20.65
2022-12-06T23:24:15.030Z,18.38
2022-12-06T23:26:50.678Z,20.65
2022-12-06T23:29:22.642Z,22.10
2022-12-06T23:31:52.436Z,20.60
2022-12-06T23:34:23.510Z,18.17
2022-12-06T23:36:52.934Z,22.20
2022-12-06T23:39:22.243Z,18.50
2022-12-06T23:41:51.052Z,16.52
2022-12-06T23:44:19.889Z,19.85
2022-12-06T23:46:49.137Z,18.70
2022-12-06T23:49:19.950Z,16.13
2022-12-06T23:51:48.878Z,16.60
2022-12-06T23:54:18.612Z,17.65
2022-12-06T23:56:47.615Z,17.50
2022-12-06T23:59:17.112Z,14.85
